Time;durP1;ratioP1;P1;durP2;ratioP2;P2;SDS_P1;SDS_P2;PMS_P1;PMS_P2;Temp;Humidity;BMP_temperature;BMP_pressure;BME280_temperature;BME280_humidity;BME280_pressure;Samples;Min_cycle;Max_cycle;Signal;HPM_P1;HPM_P2
2022/06/03 00:02:13;;;;;;;7.35;4.45;;;12.20;99.90;;;;;;5075723;28;20566;-76
2022/06/03 00:05:12;;;;;;;8.75;4.82;;;12.10;99.90;;;;;;5075664;28;20036;-76
2022/06/03 00:08:02;;;;;;;8.80;4.75;;;12.10;99.90;;;;;;5093495;28;20062;-76
2022/06/03 00:11:02;;;;;;;6.95;4.05;;;12.20;99.90;;;;;;5074561;28;20040;-76
2022/06/03 00:13:59;;;;;;;9.25;4.00;;;12.30;99.90;;;;;;5075477;28;20553;-76
2022/06/03 00:16:31;;;;;;;5.75;3.55;;;12.30;99.90;;;;;;5093569;28;20048;-76
2022/06/03 00:19:11;;;;;;;4.88;4.00;;;12.10;99.90;;;;;;5075574;28;20164;-76
2022/06/03 00:22:13;;;;;;;5.25;3.80;;;12.00;99.90;;;;;;5093642;28;20047;-76
2022/06/03 00:25:21;;;;;;;5.18;3.75;;;12.20;99.90;;;;;;5075298;28;20046;-76
2022/06/03 00:28:14;;;;;;;6.00;3.50;;;12.00;99.90;;;;;;5061912;28;20048;-76
2022/06/03 00:30:51;;;;;;;5.72;3.53;;;12.10;99.90;;;;;;5073654;28;20615;-76
2022/06/03 00:33:17;;;;;;;5.32;3.80;;;;;;;;;;5093051;28;20043;-76
2022/06/03 00:35:46;;;;;;;5.43;3.88;;;11.90;99.90;;;;;;5075002;28;20081;-76
2022/06/03 00:38:28;;;;;;;5.95;3.92;;;12.00;99.90;;;;;;5092832;28;20036;-76
2022/06/03 00:41:31;;;;;;;4.80;3.50;;;11.90;99.90;;;;;;5091953;28;20047;-76
2022/06/03 00:44:09;;;;;;;7.60;4.07;;;12.00;99.90;;;;;;5074643;28;20119;-76
2022/06/03 00:47:04;;;;;;;11.00;4.80;;;11.90;99.90;;;;;;5092846;28;20110;-76
2022/06/03 00:49:51;;;;;;;7.07;4.00;;;11.90;99.90;;;;;;5109127;22;20437;-70
2022/06/03 00:52:20;;;;;;;9.02;4.50;;;11.70;99.90;;;;;;5034503;28;20123;-70
2022/06/03 00:55:09;;;;;;;4.68;4.20;;;11.90;99.90;;;;;;5034373;28;20041;-70
2022/06/03 00:57:40;;;;;;;9.60;5.63;;;11.90;99.90;;;;;;5034558;28;20095;-70
2022/06/03 01:00:28;;;;;;;6.60;4.70;;;11.80;99.90;;;;;;5033654;28;20051;-70
2022/06/03 01:03:11;;;;;;;9.77;5.70;;;11.80;99.90;;;;;;5034218;28;20483;-70
2022/06/03 01:05:58;;;;;;;7.93;5.13;;;11.80;99.90;;;;;;5052231;28;20076;-70
2022/06/03 01:08:55;;;;;;;7.47;4.80;;;11.90;99.90;;;;;;5034262;28;20083;-70
2022/06/03 01:11:46;;;;;;;6.75;4.20;;;11.60;99.90;;;;;;5033895;28;20503;-70
2022/06/03 01:14:45;;;;;;;5.28;3.83;;;11.80;99.90;;;;;;5052035;28;20106;-70
2022/06/03 01:17:30;;;;;;;11.90;5.45;;;11.60;99.90;;;;;;5052198;28;20087;-71
2022/06/03 01:20:01;;;;;;;10.38;5.30;;;11.50;99.90;;;;;;5033355;28;20098;-70
2022/06/03 01:22:45;;;;;;;6.38;4.80;;;11.60;99.90;;;;;;5034508;28;20450;-70
2022/06/03 01:25:41;;;;;;;9.23;4.82;;;11.70;99.90;;;;;;5052103;28;20048;-70
2022/06/03 01:28:42;;;;;;;7.30;4.93;;;11.60;99.90;;;;;;5034044;28;20087;-70
2022/06/03 01:31:26;;;;;;;8.32;5.55;;;11.50;99.90;;;;;;5002571;28;20052;-70
2022/06/03 01:34:14;;;;;;;7.47;5.63;;;11.60;99.90;;;;;;5051928;28;20037;-70
2022/06/03 01:36:59;;;;;;;9.43;5.82;;;11.60;99.90;;;;;;5033835;28;20040;-70
2022/06/03 01:39:49;;;;;;;10.23;6.63;;;11.50;99.90;;;;;;5033319;28;20067;-71
2022/06/03 01:42:15;;;;;;;9.55;5.72;;;;;;;;;;5032988;28;20037;-70
2022/06/03 01:45:18;;;;;;;8.38;6.53;;;11.70;99.90;;;;;;5033896;28;20095;-70
2022/06/03 01:48:10;;;;;;;6.97;5.50;;;11.40;99.90;;;;;;5033697;28;20506;-70
2022/06/03 01:51:01;;;;;;;13.77;6.68;;;11.40;99.90;;;;;;5032569;28;20037;-70
2022/06/03 01:53:51;;;;;;;9.02;6.05;;;11.40;99.90;;;;;;5033832;28;20036;-70
2022/06/03 01:56:55;;;;;;;11.50;7.32;;;11.50;99.90;;;;;;5051692;28;20045;-70
2022/06/03 01:59:45;;;;;;;10.80;6.72;;;11.60;99.90;;;;;;5032743;28;20441;-70
2022/06/03 02:02:49;;;;;;;7.97;5.55;;;11.20;99.90;;;;;;5033460;28;20045;-70
2022/06/03 02:05:46;;;;;;;11.00;6.50;;;11.30;99.90;;;;;;5051553;28;20115;-70
2022/06/03 02:08:17;;;;;;;12.90;6.00;;;11.30;99.90;;;;;;5017056;28;20040;-70
2022/06/03 02:11:15;;;;;;;12.80;6.53;;;11.20;99.90;;;;;;5016214;28;20037;-70
2022/06/03 02:13:58;;;;;;;10.45;7.18;;;11.30;99.90;;;;;;5001386;28;20049;-70
2022/06/03 02:17:10;;;;;;;11.55;6.30;;;11.40;99.90;;;;;;5033935;28;20048;-70
2022/06/03 02:20:16;;;;;;;9.75;6.38;;;11.10;99.90;;;;;;5050560;28;20053;-70
2022/06/03 02:23:07;;;;;;;11.13;5.78;;;11.20;99.90;;;;;;5033382;28;20037;-70
2022/06/03 02:25:51;;;;;;;7.28;5.57;;;10.90;99.90;;;;;;5033692;28;20342;-70
2022/06/03 02:28:17;;;;;;;11.02;6.07;;;;;;;;;;5051242;28;20045;-70
2022/06/03 02:31:10;;;;;;;8.60;6.13;;;11.10;99.90;;;;;;5050441;28;20047;-70
2022/06/03 02:33:51;;;;;;;9.07;5.70;;;11.20;99.90;;;;;;5033613;28;20071;-70
2022/06/03 02:36:54;;;;;;;7.60;5.60;;;11.10;99.90;;;;;;5051169;28;20097;-70
2022/06/03 02:40:15;;;;;;;8.48;5.75;;;10.80;99.90;;;;;;5050188;28;20045;-70
2022/06/03 02:43:13;;;;;;;9.13;5.97;;;11.00;99.90;;;;;;5033451;28;20044;-70
2022/06/03 02:45:48;;;;;;;9.75;5.65;;;10.90;99.90;;;;;;5033357;28;20060;-70
2022/06/03 02:48:49;;;;;;;8.77;5.75;;;10.80;99.90;;;;;;5016910;28;20091;-72
2022/06/03 02:51:59;;;;;;;14.20;6.95;;;10.90;99.90;;;;;;5032112;28;20349;-72
2022/06/03 02:55:02;;;;;;;9.73;6.53;;;10.90;99.90;;;;;;5035099;28;20049;-72
2022/06/03 02:57:55;;;;;;;9.83;6.17;;;10.80;99.90;;;;;;5020458;28;20055;-72
2022/06/03 03:00:36;;;;;;;10.05;6.60;;;11.00;99.90;;;;;;5022204;28;20049;-72
2022/06/03 03:03:32;;;;;;;9.43;6.78;;;10.90;99.90;;;;;;5020423;28;20045;-72
2022/06/03 03:06:25;;;;;;;8.85;6.18;;;10.80;99.90;;;;;;5036555;28;20040;-72
2022/06/03 03:09:13;;;;;;;11.80;5.80;;;10.80;99.90;;;;;;5035970;28;20552;-73
2022/06/03 03:11:51;;;;;;;10.48;6.65;;;10.80;99.90;;;;;;5054139;28;20511;-72
2022/06/03 03:14:39;;;;;;;9.30;7.07;;;10.80;99.90;;;;;;5054308;28;20075;-72
2022/06/03 03:17:26;;;;;;;9.60;6.47;;;10.60;99.90;;;;;;5036282;28;20037;-72
2022/06/03 03:20:21;;;;;;;9.85;6.95;;;11.00;99.90;;;;;;5035340;28;20045;-72
2022/06/03 03:23:38;;;;;;;12.45;6.82;;;10.70;99.90;;;;;;5054191;28;20041;-72
2022/06/03 03:26:14;;;;;;;10.10;7.93;;;10.90;99.90;;;;;;5036232;28;20101;-72
2022/06/03 03:29:08;;;;;;;12.55;7.10;;;10.80;99.90;;;;;;5036521;28;20146;-72
2022/06/03 03:31:55;;;;;;;10.70;6.93;;;10.90;99.90;;;;;;5054169;28;20040;-72
2022/06/03 03:34:44;;;;;;;13.00;6.85;;;10.80;99.90;;;;;;5036332;28;20503;-72
2022/06/03 03:37:34;;;;;;;9.32;7.50;;;10.80;99.90;;;;;;5053934;28;20041;-72
2022/06/03 03:40:26;;;;;;;12.93;7.25;;;10.90;99.90;;;;;;5034912;28;20106;-72
2022/06/03 03:43:10;;;;;;;12.80;7.25;;;10.80;99.90;;;;;;5019502;28;20487;-72
2022/06/03 03:45:44;;;;;;;;;;;10.90;99.90;;;;;;5036415;28;20029;-72
2022/06/03 03:48:19;;;;;;;9.20;7.00;;;10.70;99.90;;;;;;5019245;28;19923;-72
2022/06/03 03:50:53;;;;;;;9.02;6.55;;;10.70;99.90;;;;;;5052606;28;20525;-72
2022/06/03 03:53:41;;;;;;;13.60;7.40;;;10.70;99.90;;;;;;5035547;28;20072;-72
2022/06/03 03:56:34;;;;;;;7.32;6.00;;;10.90;99.90;;;;;;5040699;28;20057;-72
2022/06/03 03:59:00;;;;;;;9.00;6.35;;;;;;;;;;5052664;28;20048;-72
2022/06/03 04:02:11;;;;;;;10.35;7.40;;;10.90;99.90;;;;;;5053185;28;20045;-72
2022/06/03 04:04:56;;;;;;;13.63;6.78;;;11.00;99.90;;;;;;5035159;28;20495;-72
2022/06/03 04:07:51;;;;;;;14.68;6.80;;;11.10;99.90;;;;;;5052990;28;20133;-72
2022/06/03 04:10:54;;;;;;;8.43;6.28;;;11.10;99.90;;;;;;5034691;28;20037;-72
2022/06/03 04:13:45;;;;;;;9.65;6.32;;;10.90;99.90;;;;;;5018803;28;20395;-72
2022/06/03 04:16:32;;;;;;;7.95;6.18;;;11.10;99.90;;;;;;5035236;28;20036;-72
2022/06/03 04:19:19;;;;;;;9.20;6.60;;;11.00;99.90;;;;;;5034622;28;20503;-72
2022/06/03 04:22:10;;;;;;;9.63;6.63;;;11.10;99.90;;;;;;5035022;28;20045;-72
2022/06/03 04:25:00;;;;;;;9.82;6.25;;;11.10;99.90;;;;;;5018681;28;20037;-72
2022/06/03 04:27:50;;;;;;;14.77;7.15;;;10.90;99.90;;;;;;5035134;28;20037;-72
2022/06/03 04:30:36;;;;;;;9.13;6.47;;;11.00;99.90;;;;;;5017609;28;20124;-72
2022/06/03 04:33:40;;;;;;;9.35;5.65;;;11.30;99.90;;;;;;5052888;28;20083;-72
2022/06/03 04:36:40;;;;;;;8.10;5.97;;;11.20;99.90;;;;;;5033859;28;20041;-74
2022/06/03 04:39:23;;;;;;;8.35;6.40;;;11.30;99.90;;;;;;5051938;28;20474;-72
2022/06/03 04:42:18;;;;;;;9.02;6.15;;;11.30;99.90;;;;;;5034796;28;20037;-72
2022/06/03 04:45:23;;;;;;;9.75;6.57;;;11.20;99.90;;;;;;5034736;28;20037;-72
2022/06/03 04:48:26;;;;;;;7.10;6.38;;;11.40;99.90;;;;;;5052730;28;20033;-72
2022/06/03 04:51:40;;;;;;;11.68;6.32;;;11.50;99.90;;;;;;5033510;28;20091;-72
2022/06/03 04:54:44;;;;;;;9.68;5.68;;;11.60;99.90;;;;;;5034416;28;20041;-72
2022/06/03 04:57:38;;;;;;;10.68;5.63;;;11.50;99.90;;;;;;5017166;28;20049;-72
2022/06/03 05:00:42;;;;;;;8.20;5.68;;;11.60;99.90;;;;;;5051377;28;20114;-72
2022/06/03 05:03:08;;;;;;;15.32;6.50;;;;;;;;;;4981732;28;20394;-72
2022/06/03 05:05:49;;;;;;;10.00;5.82;;;11.90;99.90;;;;;;5034234;28;20044;-72
2022/06/03 05:08:15;;;;;;;8.50;5.38;;;;;;;;;;5034607;28;20109;-72
2022/06/03 05:11:19;;;;;;;11.32;5.55;;;11.80;99.90;;;;;;5033658;28;20071;-72
2022/06/03 05:14:00;;;;;;;9.23;5.65;;;12.00;99.90;;;;;;5011052;28;20130;-72
2022/06/03 05:17:01;;;;;;;11.05;5.82;;;12.00;99.90;;;;;;5034399;28;20041;-72
2022/06/03 05:19:30;;;;;;;9.77;5.30;;;12.10;99.90;;;;;;5033259;28;20418;-72
2022/06/03 05:22:38;;;;;;;8.60;5.95;;;12.10;99.90;;;;;;5017622;28;20079;-72
2022/06/03 05:25:37;;;;;;;7.65;5.75;;;12.30;99.90;;;;;;5034201;28;20037;-72
2022/06/03 05:28:08;;;;;;;7.78;5.50;;;12.20;99.90;;;;;;5034071;28;20048;-73
2022/06/03 05:30:57;;;;;;;9.52;5.28;;;12.50;99.90;;;;;;5016756;28;20068;-72
2022/06/03 05:33:53;;;;;;;7.38;4.95;;;12.50;99.90;;;;;;5051965;28;20040;-72
2022/06/03 05:36:56;;;;;;;10.05;5.40;;;12.50;99.90;;;;;;5033922;28;20036;-72
2022/06/03 05:39:34;;;;;;;7.80;5.10;;;12.70;99.90;;;;;;5033028;28;20041;-72
2022/06/03 05:42:32;;;;;;;6.18;4.82;;;12.60;99.90;;;;;;5033999;28;20064;-72
2022/06/03 05:45:43;;;;;;;7.15;5.13;;;12.80;99.90;;;;;;5051634;28;20456;-73
2022/06/03 05:48:15;;;;;;;7.53;5.38;;;12.90;99.90;;;;;;5033929;28;20120;-72
2022/06/03 05:51:00;;;;;;;8.68;5.50;;;12.90;99.90;;;;;;5032892;28;20062;-72
2022/06/03 05:53:39;;;;;;;8.70;4.38;;;13.10;99.90;;;;;;5033635;28;20052;-72
2022/06/03 05:56:36;;;;;;;8.98;5.05;;;13.20;99.90;;;;;;5033870;28;20040;-73
2022/06/03 05:59:29;;;;;;;10.52;5.65;;;13.30;99.90;;;;;;4983576;28;20072;-71
2022/06/03 06:02:34;;;;;;;8.02;4.82;;;13.20;99.90;;;;;;5016739;28;20037;-72
2022/06/03 06:05:06;;;;;;;5.70;4.25;;;13.40;99.90;;;;;;5051586;28;20087;-72
2022/06/03 06:07:50;;;;;;;8.30;4.47;;;13.50;99.90;;;;;;5051247;28;20508;-72
2022/06/03 06:10:36;;;;;;;7.30;4.20;;;13.60;99.90;;;;;;5032981;28;20037;-71
2022/06/03 06:13:10;;;;;;;6.60;3.78;;;14.00;99.90;;;;;;5033340;28;20499;-72
2022/06/03 06:15:55;;;;;;;5.30;3.30;;;13.70;99.90;;;;;;5033761;28;20037;-72
2022/06/03 06:18:33;;;;;;;4.65;3.78;;;13.90;99.90;;;;;;5033667;28;20053;-72
2022/06/03 06:21:22;;;;;;;9.35;3.85;;;14.00;99.90;;;;;;5050711;28;20112;-72
2022/06/03 06:24:05;;;;;;;6.28;3.55;;;14.10;99.90;;;;;;5034511;28;20037;-73
2022/06/03 06:27:16;;;;;;;6.40;3.17;;;14.20;99.90;;;;;;5025972;28;22685;-71
2022/06/03 06:30:21;;;;;;;4.60;2.47;;;14.50;99.90;;;;;;5046445;28;20283;-71
2022/06/03 06:33:07;;;;;;;5.03;2.40;;;14.50;99.90;;;;;;5061793;28;20517;-71
2022/06/03 06:35:56;;;;;;;7.72;3.15;;;14.70;99.90;;;;;;4982620;28;20079;-71
2022/06/03 06:38:47;;;;;;;6.05;3.00;;;14.80;99.90;;;;;;5027557;28;20041;-70
2022/06/03 06:41:37;;;;;;;5.18;3.28;;;14.90;99.90;;;;;;5025683;28;20048;-72
2022/06/03 06:44:19;;;;;;;6.47;2.55;;;15.00;99.90;;;;;;5049369;28;20403;-73
2022/06/03 06:46:45;;;;;;;4.07;2.45;;;;;;;;;;5047576;28;20037;-71
2022/06/03 06:49:34;;;;;;;5.10;2.13;;;15.20;99.90;;;;;;5050243;28;20049;-71
2022/06/03 06:52:11;;;;;;;2.53;1.92;;;15.10;99.90;;;;;;5037265;28;20526;-69
2022/06/03 06:54:43;;;;;;;3.55;2.30;;;15.40;99.90;;;;;;5064512;28;20572;-69
2022/06/03 06:57:28;;;;;;;3.13;2.10;;;15.40;99.90;;;;;;5037448;28;20029;-69
2022/06/03 07:00:12;;;;;;;4.00;1.90;;;15.60;99.90;;;;;;5040791;28;20112;-69
2022/06/03 07:02:46;;;;;;;2.70;2.20;;;15.50;99.90;;;;;;5022416;28;20037;-69
2022/06/03 07:05:23;;;;;;;5.78;2.42;;;15.80;99.90;;;;;;5035109;28;20044;-69
2022/06/03 07:08:00;;;;;;;4.00;2.03;;;15.80;99.90;;;;;;5035258;28;20379;-69
2022/06/03 07:10:38;;;;;;;4.47;2.03;;;16.00;99.90;;;;;;5050655;28;20040;-69
2022/06/03 07:13:31;;;;;;;4.10;1.92;;;16.20;99.90;;;;;;5041752;28;20043;-69
2022/06/03 07:16:03;;;;;;;;;;;16.10;99.90;;;;;;5033032;28;20449;-69
2022/06/03 07:21:53;;;;;;;3.42;1.35;;;16.40;99.90;;;;;;5033793;28;20480;-70
2022/06/03 07:24:27;;;;;;;3.38;1.45;;;16.60;99.90;;;;;;5016352;28;20037;-70
2022/06/03 07:26:59;;;;;;;3.05;1.38;;;16.80;99.90;;;;;;5032897;28;20488;-70
2022/06/03 07:29:48;;;;;;;1.60;1.47;;;16.90;99.90;;;;;;5033480;28;20041;-69
2022/06/03 07:32:26;;;;;;;2.88;1.45;;;16.90;99.90;;;;;;5031884;28;20045;-70
2022/06/03 07:35:01;;;;;;;2.88;1.58;;;16.80;99.90;;;;;;4999928;28;20039;-69
2022/06/03 07:38:05;;;;;;;2.78;1.40;;;16.90;99.90;;;;;;5034269;28;20057;-69
2022/06/03 07:40:39;;;;;;;3.08;1.33;;;17.00;99.90;;;;;;5031937;28;20399;-69
2022/06/03 07:43:24;;;;;;;5.60;1.92;;;17.20;99.90;;;;;;4999705;28;20068;-70
2022/06/03 07:45:59;;;;;;;1.90;1.30;;;17.40;99.90;;;;;;5016332;28;20038;-69
2022/06/03 07:48:28;;;;;;;5.32;1.80;;;17.40;99.90;;;;;;5016234;28;20041;-70
2022/06/03 07:51:25;;;;;;;2.25;1.45;;;17.60;99.90;;;;;;4998592;28;20056;-69
2022/06/03 07:54:31;;;;;;;2.10;1.30;;;17.60;99.90;;;;;;5032595;28;20049;-69
2022/06/03 07:57:08;;;;;;;1.65;1.35;;;17.40;99.90;;;;;;4956465;28;20125;-70
2022/06/03 07:59:37;;;;;;;3.42;1.55;;;17.50;99.90;;;;;;5025405;28;20111;-69
2022/06/03 08:02:13;;;;;;;2.05;1.73;;;18.00;99.90;;;;;;5015748;28;20488;-69
2022/06/03 08:04:40;;;;;;;4.30;2.22;;;17.90;99.90;;;;;;5033417;28;20492;-70
2022/06/03 08:12:57;;;;;;;4.43;1.90;;;18.30;99.90;;;;;;5015387;28;20098;-69
2022/06/03 08:15:29;;;;;;;2.78;1.90;;;18.40;99.90;;;;;;5015721;28;20120;-70
2022/06/03 08:17:56;;;;;;;3.22;2.30;;;18.10;99.90;;;;;;5033030;28;20403;-70
2022/06/03 08:20:25;;;;;;;4.85;2.20;;;18.00;99.90;;;;;;5032074;28;20433;-70
2022/06/03 08:22:52;;;;;;;2.88;1.50;;;18.30;99.90;;;;;;5033265;28;20049;-70
2022/06/03 08:25:24;;;;;;;4.10;1.85;;;19.40;99.90;;;;;;5015453;28;20041;-69
2022/06/03 08:27:51;;;;;;;5.65;2.05;;;18.30;99.90;;;;;;5033114;28;20194;-70
2022/06/03 08:30:25;;;;;;;3.72;1.73;;;18.30;99.90;;;;;;5022930;28;20043;-69
2022/06/03 08:32:58;;;;;;;2.97;1.80;;;18.50;99.90;;;;;;5051124;28;20118;-69
2022/06/03 08:35:27;;;;;;;6.68;1.73;;;19.10;99.90;;;;;;5051971;28;20544;-69
2022/06/03 08:37:58;;;;;;;6.35;2.90;;;18.80;99.90;;;;;;5034229;28;20040;-69
2022/06/03 08:40:46;;;;;;;3.80;1.77;;;18.60;99.90;;;;;;5051453;28;20046;-69
2022/06/03 08:43:26;;;;;;;3.17;2.22;;;18.60;99.90;;;;;;5033556;28;20044;-69
2022/06/03 08:46:05;;;;;;;4.07;1.73;;;18.50;99.90;;;;;;5017737;28;20028;-69
2022/06/03 08:48:39;;;;;;;3.00;1.58;;;19.90;99.90;;;;;;5032843;28;20041;-69
2022/06/03 08:51:11;;;;;;;4.07;2.28;;;18.80;99.90;;;;;;5033031;28;20052;-69
2022/06/03 08:53:59;;;;;;;2.78;1.65;;;18.80;99.90;;;;;;5052099;28;20498;-70
2022/06/03 08:56:38;;;;;;;2.72;1.40;;;19.50;99.90;;;;;;5016569;28;20044;-69
2022/06/03 08:59:29;;;;;;;5.38;1.70;;;19.00;99.90;;;;;;5033417;28;20406;-69
2022/06/03 09:02:09;;;;;;;4.50;1.88;;;19.20;99.90;;;;;;5033940;28;20033;-69
2022/06/03 09:04:39;;;;;;;2.75;1.58;;;20.00;99.90;;;;;;5034088;28;20037;-69
2022/06/03 09:07:05;;;;;;;5.50;1.52;;;20.50;99.90;;;;;;5017889;28;20048;-69
2022/06/03 09:09:56;;;;;;;2.30;1.48;;;19.40;99.90;;;;;;5033278;28;20036;-69
2022/06/03 09:12:50;;;;;;;2.38;1.75;;;19.30;99.30;;;;;;5017464;28;20040;-69
2022/06/03 09:15:25;;;;;;;4.85;1.35;;;19.40;99.40;;;;;;5052260;28;20037;-69
2022/06/03 09:18:02;;;;;;;2.45;1.85;;;19.60;99.90;;;;;;5033337;28;20037;-69
2022/06/03 09:20:44;;;;;;;3.22;1.90;;;19.60;99.90;;;;;;5032236;28;20254;-69
2022/06/03 09:23:17;;;;;;;3.47;1.67;;;19.90;99.90;;;;;;4997879;28;20368;-69
2022/06/03 09:25:44;;;;;;;;;;;19.50;99.10;;;;;;5014450;28;20411;-69
2022/06/03 09:28:17;;;;;;;5.97;1.60;;;20.50;99.90;;;;;;5031785;28;19940;-69
2022/06/03 09:30:45;;;;;;;1.80;1.50;;;19.80;99.40;;;;;;5030913;28;20147;-69
2022/06/03 09:33:14;;;;;;;2.70;1.42;;;19.80;99.80;;;;;;5011793;28;20094;-69
2022/06/03 09:35:45;;;;;;;1.98;1.50;;;19.90;99.60;;;;;;5013892;28;20037;-69
2022/06/03 09:38:13;;;;;;;4.05;2.15;;;20.20;99.90;;;;;;4997824;28;20433;-69
2022/06/03 09:40:44;;;;;;;3.88;2.00;;;20.10;99.50;;;;;;5012951;28;20041;-69
2022/06/03 09:43:10;;;;;;;2.03;1.83;;;19.90;99.40;;;;;;5031889;28;20159;-69
2022/06/03 09:45:36;;;;;;;3.50;1.60;;;19.90;99.30;;;;;;5013590;28;20124;-69
2022/06/03 09:48:04;;;;;;;3.88;1.45;;;20.10;99.20;;;;;;4997242;28;20045;-69
2022/06/03 09:50:31;;;;;;;4.43;1.95;;;20.30;99.50;;;;;;5020315;28;20055;-68
2022/06/03 09:53:04;;;;;;;1.50;1.33;;;20.60;99.70;;;;;;5033879;28;20537;-69
2022/06/03 09:55:37;;;;;;;2.47;2.03;;;20.10;98.60;;;;;;5033604;28;20045;-70
2022/06/03 09:58:04;;;;;;;3.72;2.03;;;20.30;98.30;;;;;;5051401;28;20033;-69
2022/06/03 10:00:41;;;;;;;4.57;1.60;;;20.10;98.50;;;;;;5033058;28;20033;-69
2022/06/03 10:03:08;;;;;;;3.08;1.95;;;20.30;98.80;;;;;;5033034;28;20036;-69
2022/06/03 10:05:34;;;;;;;2.22;1.65;;;20.40;98.50;;;;;;5037378;28;20120;-69
2022/06/03 10:08:04;;;;;;;2.78;1.73;;;20.30;99.00;;;;;;5037320;28;20033;-70
2022/06/03 10:13:15;;;;;;;2.65;1.98;;;20.70;98.10;;;;;;5055572;28;20402;-69
2022/06/03 10:15:53;;;;;;;5.95;1.70;;;20.00;98.00;;;;;;5053350;28;20049;-70
2022/06/03 10:18:34;;;;;;;2.65;1.60;;;20.50;98.30;;;;;;5037289;28;20096;-69
2022/06/03 10:21:05;;;;;;;2.53;1.70;;;21.00;98.70;;;;;;5053801;28;20521;-69
2022/06/03 10:23:40;;;;;;;4.05;1.77;;;21.20;98.50;;;;;;5055116;28;20033;-69
2022/06/03 10:26:06;;;;;;;1.83;1.60;;;21.30;98.70;;;;;;5055261;28;20063;-70
2022/06/03 10:28:34;;;;;;;6.90;2.60;;;21.00;98.20;;;;;;5037068;28;20100;-69
2022/06/03 10:31:04;;;;;;;2.75;2.03;;;20.90;99.00;;;;;;5053924;28;20049;-70
2022/06/03 10:33:30;;;;;;;4.03;1.80;;;21.00;98.40;;;;;;5032170;28;20044;-69
2022/06/03 10:35:57;;;;;;;3.92;2.28;;;21.00;99.00;;;;;;5035106;28;20116;-70
2022/06/03 10:38:27;;;;;;;2.88;2.03;;;21.30;98.70;;;;;;5060277;28;20044;-69
2022/06/03 10:40:54;;;;;;;5.97;2.00;;;21.10;97.30;;;;;;5048202;28;20752;-70
2022/06/03 10:43:30;;;;;;;4.35;1.75;;;21.60;98.10;;;;;;5048289;28;20107;-70
2022/06/03 10:46:15;;;;;;;2.95;1.42;;;21.20;97.90;;;;;;5044367;28;20401;-69
2022/06/03 10:48:41;;;;;;;3.03;2.00;;;21.30;98.40;;;;;;5045854;28;20044;-70
2022/06/03 10:51:16;;;;;;;13.75;3.90;;;21.60;98.10;;;;;;5040141;28;20032;-69
2022/06/03 11:02:02;;;;;;;2.60;1.90;;;21.60;97.70;;;;;;5046025;28;20045;-70
2022/06/03 11:04:38;;;;;;;2.78;1.70;;;21.60;97.30;;;;;;5038505;28;20451;-68
2022/06/03 11:07:22;;;;;;;4.30;1.60;;;21.20;96.80;;;;;;5029859;28;20044;-70
2022/06/03 11:10:04;;;;;;;3.63;1.67;;;21.60;97.60;;;;;;5059541;28;20048;-70
2022/06/03 11:12:31;;;;;;;2.60;2.00;;;22.00;99.50;;;;;;5047135;28;20106;-70
2022/06/03 11:14:57;;;;;;;2.33;1.65;;;21.80;99.90;;;;;;5019868;28;20032;-70
2022/06/03 11:17:35;;;;;;;4.75;2.00;;;21.60;99.90;;;;;;5048278;28;20417;-70
2022/06/03 11:20:16;;;;;;;2.47;1.85;;;22.40;99.90;;;;;;5040603;28;20071;-70
2022/06/03 11:22:45;;;;;;;2.30;2.10;;;22.00;99.90;;;;;;5049175;28;20391;-70
2022/06/03 11:25:18;;;;;;;3.17;1.65;;;21.70;99.20;;;;;;5041757;28;20063;-70
2022/06/03 11:28:11;;;;;;;3.42;1.88;;;21.80;99.20;;;;;;5047927;28;20044;-70
2022/06/03 11:30:48;;;;;;;3.78;1.55;;;21.90;98.50;;;;;;5056133;28;20040;-70
2022/06/03 11:33:25;;;;;;;2.60;2.10;;;22.30;98.70;;;;;;5049818;28;20473;-69
2022/06/03 11:36:04;;;;;;;2.42;1.70;;;21.70;97.80;;;;;;5027930;28;20049;-69
2022/06/03 11:38:39;;;;;;;3.03;1.60;;;22.10;98.00;;;;;;5048806;28;20048;-69
2022/06/03 11:41:14;;;;;;;4.05;1.50;;;22.00;98.00;;;;;;5020992;28;20065;-70
2022/06/03 11:44:10;;;;;;;3.75;1.75;;;22.20;98.50;;;;;;5032401;28;20044;-70
2022/06/03 11:46:39;;;;;;;3.70;2.10;;;22.30;99.00;;;;;;5037598;28;21244;-70
2022/06/03 11:49:06;;;;;;;5.82;2.03;;;21.70;99.00;;;;;;5021442;28;20571;-70
2022/06/03 11:51:33;;;;;;;3.17;1.55;;;22.00;99.60;;;;;;5042608;28;20049;-70
2022/06/03 11:53:59;;;;;;;4.30;2.33;;;22.10;99.80;;;;;;5021751;28;20519;-70
2022/06/03 11:56:28;;;;;;;4.53;1.77;;;22.20;99.60;;;;;;5020857;28;20037;-71
2022/06/03 11:59:12;;;;;;;3.20;1.25;;;22.20;98.50;;;;;;5049398;28;20033;-69
2022/06/03 12:01:50;;;;;;;3.30;2.00;;;22.30;97.60;;;;;;5028851;28;20052;-70
2022/06/03 12:04:34;;;;;;;2.83;1.88;;;22.30;97.80;;;;;;5031844;28;20045;-71
2022/06/03 12:07:24;;;;;;;4.95;1.60;;;22.50;97.50;;;;;;5047532;28;20719;-69
2022/06/03 12:10:10;;;;;;;3.55;1.90;;;21.70;97.70;;;;;;5024629;28;20037;-70
2022/06/03 12:15:32;;;;;;;3.50;1.50;;;22.10;98.10;;;;;;5023178;28;20503;-70
2022/06/03 12:18:07;;;;;;;4.45;3.13;;;21.40;97.60;;;;;;5011928;28;20064;-70
2022/06/03 12:20:47;;;;;;;1.65;1.55;;;21.50;98.00;;;;;;5045577;28;20045;-70
2022/06/03 12:23:12;;;;;;;2.60;1.67;;;22.10;97.60;;;;;;5034305;28;20057;-70
2022/06/03 12:25:41;;;;;;;2.55;1.35;;;22.40;96.00;;;;;;5041421;28;20033;-70
2022/06/03 12:28:18;;;;;;;7.28;1.70;;;22.50;96.10;;;;;;5027960;28;20487;-69
2022/06/03 12:30:58;;;;;;;4.18;1.88;;;22.30;95.70;;;;;;5025380;28;20040;-71
2022/06/03 12:33:26;;;;;;;2.53;1.77;;;21.90;95.90;;;;;;5028758;28;20036;-70
2022/06/03 12:35:56;;;;;;;5.65;1.77;;;21.70;95.40;;;;;;5042497;28;20044;-70
2022/06/03 12:38:22;;;;;;;3.13;1.58;;;22.00;96.20;;;;;;5039963;28;20545;-70
2022/06/03 12:40:57;;;;;;;2.28;1.77;;;22.70;96.40;;;;;;5018822;28;20410;-70
2022/06/03 12:43:28;;;;;;;4.88;1.50;;;22.50;96.00;;;;;;5026350;28;20040;-70
2022/06/03 12:45:59;;;;;;;2.15;1.67;;;22.90;96.20;;;;;;5039415;28;20032;-70
2022/06/03 12:48:44;;;;;;;5.20;2.10;;;23.10;96.60;;;;;;5025661;28;20395;-70
2022/06/03 12:51:20;;;;;;;3.65;1.75;;;22.70;96.80;;;;;;5023742;28;20044;-70
2022/06/03 12:53:48;;;;;;;5.22;1.77;;;22.30;96.10;;;;;;5019017;28;20047;-71
2022/06/03 12:56:36;;;;;;;2.95;1.58;;;22.90;97.10;;;;;;5019989;28;20098;-70
2022/06/03 12:59:08;;;;;;;7.30;2.05;;;22.60;96.60;;;;;;5024093;28;20135;-69
2022/06/03 13:01:34;;;;;;;4.47;2.13;;;22.20;95.90;;;;;;5019365;28;20424;-70
2022/06/03 13:04:37;;;;;;;2.85;1.70;;;22.60;96.30;;;;;;5006160;28;20124;-71
2022/06/03 13:07:33;;;;;;;3.53;1.83;;;23.00;96.40;;;;;;5033713;28;20175;-70
2022/06/03 13:10:02;;;;;;;2.22;1.77;;;22.80;96.60;;;;;;5019048;28;20048;-70
2022/06/03 13:12:44;;;;;;;3.63;1.83;;;22.90;96.60;;;;;;5026201;28;20044;-70
2022/06/03 13:15:35;;;;;;;2.63;1.77;;;23.10;97.20;;;;;;5043380;28;20491;-70
2022/06/03 13:18:10;;;;;;;5.38;1.73;;;22.80;96.40;;;;;;5022097;28;20077;-70
2022/06/03 13:20:48;;;;;;;2.47;1.55;;;22.70;96.70;;;;;;5008579;28;20107;-71
2022/06/03 13:23:32;;;;;;;4.85;1.80;;;22.30;97.50;;;;;;5015244;28;20038;-71
2022/06/03 13:26:19;;;;;;;3.45;1.60;;;22.40;98.50;;;;;;5037510;28;20117;-71
2022/06/03 13:28:50;;;;;;;6.00;1.80;;;21.50;97.90;;;;;;5042222;28;20050;-71
2022/06/03 13:31:20;;;;;;;6.43;2.38;;;21.80;98.20;;;;;;5024883;28;20166;-71
2022/06/03 13:34:11;;;;;;;2.88;1.88;;;22.30;98.90;;;;;;4998825;28;20113;-70
2022/06/03 13:36:47;;;;;;;6.03;1.50;;;22.10;98.60;;;;;;5040871;28;20552;-71
2022/06/03 13:39:33;;;;;;;2.80;1.40;;;21.80;98.10;;;;;;5040621;28;20044;-71
2022/06/03 13:45:18;;;;;;;2.65;1.35;;;22.30;98.30;;;;;;5042409;28;20040;-69
2022/06/03 13:47:51;;;;;;;3.55;1.27;;;21.40;97.80;;;;;;5016829;28;20048;-71
2022/06/03 13:50:30;;;;;;;4.80;1.50;;;21.40;98.30;;;;;;5024428;28;20064;-70
2022/06/03 13:53:00;;;;;;;3.13;1.35;;;21.70;98.00;;;;;;5014972;28;20140;-71
2022/06/03 13:55:38;;;;;;;5.35;1.45;;;21.60;98.70;;;;;;5022381;28;20034;-70
2022/06/03 13:58:39;;;;;;;3.67;1.10;;;21.30;98.10;;;;;;5040812;28;20041;-71
2022/06/03 14:01:28;;;;;;;2.33;1.20;;;21.40;98.10;;;;;;5040366;28;20120;-71
2022/06/03 14:03:58;;;;;;;2.05;0.90;;;21.20;98.40;;;;;;5039435;28;20033;-71
2022/06/03 14:06:27;;;;;;;1.20;1.00;;;21.80;98.60;;;;;;5015912;28;20037;-70
2022/06/03 14:08:58;;;;;;;3.72;1.13;;;22.20;99.00;;;;;;5022730;28;20033;-70
2022/06/03 14:11:46;;;;;;;1.85;1.08;;;21.50;98.30;;;;;;5014922;28;20041;-70
2022/06/03 14:14:24;;;;;;;4.45;1.80;;;22.00;98.40;;;;;;5025561;28;20061;-69
2022/06/03 14:16:59;;;;;;;2.72;1.13;;;22.10;97.60;;;;;;5042061;28;20033;-69
2022/06/03 14:19:37;;;;;;;2.35;0.90;;;21.40;98.20;;;;;;5018877;28;20049;-70
2022/06/03 14:22:31;;;;;;;2.15;1.00;;;21.80;98.00;;;;;;5031814;28;20042;-70
2022/06/03 14:25:19;;;;;;;2.33;1.17;;;21.70;98.10;;;;;;5022641;28;20119;-71
2022/06/03 14:27:45;;;;;;;2.03;0.90;;;21.50;97.40;;;;;;5002375;28;20030;-71
2022/06/03 14:30:24;;;;;;;2.08;0.90;;;21.70;97.70;;;;;;5020225;28;20040;-71
2022/06/03 14:32:53;;;;;;;2.63;0.77;;;21.50;97.50;;;;;;5040950;28;20048;-71